sensor_id;sensor_type;location;lat;lon;timestamp;pressure;altitude;pressure_sealevel;temperature;humidity
38400;BME280;24180;42.676;23.320;2023-08-01T00:01:46;60214.53;;;24.26;100.00
38400;BME280;24180;42.676;23.320;2023-08-01T00:04:11;94724.78;;;20.40;100.00
38400;BME280;24180;42.676;23.320;2023-08-01T00:06:36;94742.13;;;20.42;100.00
38400;BME280;24180;42.676;23.320;2023-08-01T00:09:02;94745.38;;;20.44;100.00
38400;BME280;24180;42.676;23.320;2023-08-01T00:11:27;94721.28;;;20.33;100.00
38400;BME280;24180;42.676;23.320;2023-08-01T00:13:53;94724.44;;;20.21;100.00
38400;BME280;24180;42.676;23.320;2023-08-01T00:16:18;94746.53;;;20.35;100.00
38400;BME280;24180;42.676;23.320;2023-08-01T00:18:44;94740.94;;;20.23;100.00
38400;BME280;24180;42.676;23.320;2023-08-01T00:21:09;94719.16;;;20.21;100.00
38400;BME280;24180;42.676;23.320;2023-08-01T00:23:36;94723.56;;;20.14;100.00
38400;BME280;24180;42.676;23.320;2023-08-01T00:26:02;94740.72;;;20.25;100.00
38400;BME280;24180;42.676;23.320;2023-08-01T00:28:29;94721.00;;;20.21;100.00
38400;BME280;24180;42.676;23.320;2023-08-01T00:31:02;60204.03;;;24.27;100.00
38400;BME280;24180;42.676;23.320;2023-08-01T00:33:28;94745.81;;;26.14;100.00
38400;BME280;24180;42.676;23.320;2023-08-01T00:35:53;94713.75;;;20.08;100.00
38400;BME280;24180;42.676;23.320;2023-08-01T00:38:19;94744.44;;;20.30;100.00
38400;BME280;24180;42.676;23.320;2023-08-01T00:40:44;94725.03;;;20.17;100.00
38400;BME280;24180;42.676;23.320;2023-08-01T00:43:10;94742.00;;;20.29;100.00
38400;BME280;24180;42.676;23.320;2023-08-01T00:48:19;94719.53;;;20.18;100.00
38400;BME280;24180;42.676;23.320;2023-08-01T00:50:45;94730.25;;;20.10;100.00
38400;BME280;24180;42.676;23.320;2023-08-01T00:53:11;94752.63;;;20.36;100.00
38400;BME280;24180;42.676;23.320;2023-08-01T00:55:38;94716.13;;;20.24;100.00
38400;BME280;24180;42.676;23.320;2023-08-01T00:58:04;94728.22;;;20.34;100.00
38400;BME280;24180;42.676;23.320;2023-08-01T01:00:29;94731.22;;;20.30;100.00
38400;BME280;24180;42.676;23.320;2023-08-01T01:02:55;94707.78;;;20.21;100.00
38400;BME280;24180;42.676;23.320;2023-08-01T01:05:22;60214.53;;;24.26;100.00
38400;BME280;24180;42.676;23.320;2023-08-01T01:07:49;60214.53;;;24.22;100.00
38400;BME280;24180;42.676;23.320;2023-08-01T01:10:15;94718.75;;;20.24;100.00
38400;BME280;24180;42.676;23.320;2023-08-01T01:12:40;94730.47;;;20.37;100.00
38400;BME280;24180;42.676;23.320;2023-08-01T01:15:06;94713.06;;;20.21;100.00
38400;BME280;24180;42.676;23.320;2023-08-01T01:17:31;94715.31;;;20.21;100.00
38400;BME280;24180;42.676;23.320;2023-08-01T01:19:57;94723.81;;;20.19;100.00
38400;BME280;24180;42.676;23.320;2023-08-01T01:22:24;94690.19;;;20.13;100.00
38400;BME280;24180;42.676;23.320;2023-08-01T01:24:52;94688.00;;;20.13;100.00
38400;BME280;24180;42.676;23.320;2023-08-01T01:27:18;94693.72;;;20.20;100.00
38400;BME280;24180;42.676;23.320;2023-08-01T01:29:44;94693.72;;;20.20;100.00
38400;BME280;24180;42.676;23.320;2023-08-01T01:32:11;94685.53;;;20.20;100.00
38400;BME280;24180;42.676;23.320;2023-08-01T01:34:36;94713.72;;;20.29;100.00
38400;BME280;24180;42.676;23.320;2023-08-01T01:37:02;60214.53;;;24.26;100.00
38400;BME280;24180;42.676;23.320;2023-08-01T01:39:28;94690.69;;;20.23;100.00
38400;BME280;24180;42.676;23.320;2023-08-01T01:41:54;94718.66;;;20.33;100.00
38400;BME280;24180;42.676;23.320;2023-08-01T01:44:19;94718.66;;;20.33;100.00
38400;BME280;24180;42.676;23.320;2023-08-01T01:46:44;94695.13;;;20.09;100.00
38400;BME280;24180;42.676;23.320;2023-08-01T01:49:10;94699.13;;;20.16;100.00
38400;BME280;24180;42.676;23.320;2023-08-01T01:51:35;94687.81;;;20.18;100.00
38400;BME280;24180;42.676;23.320;2023-08-01T01:54:00;94699.16;;;20.12;100.00
38400;BME280;24180;42.676;23.320;2023-08-01T01:56:26;94704.44;;;19.91;100.00
38400;BME280;24180;42.676;23.320;2023-08-01T01:58:51;94707.34;;;19.91;100.00
38400;BME280;24180;42.676;23.320;2023-08-01T02:01:17;94717.19;;;19.87;100.00
38400;BME280;24180;42.676;23.320;2023-08-01T02:03:42;94707.16;;;19.87;100.00
38400;BME280;24180;42.676;23.320;2023-08-01T02:06:08;94712.75;;;19.76;100.00
38400;BME280;24180;42.676;23.320;2023-08-01T02:08:33;94708.69;;;19.88;100.00
38400;BME280;24180;42.676;23.320;2023-08-01T02:10:58;94711.50;;;19.84;100.00
38400;BME280;24180;42.676;23.320;2023-08-01T02:13:26;94718.47;;;19.91;100.00
38400;BME280;24180;42.676;23.320;2023-08-01T02:15:52;94733.91;;;19.88;100.00
38400;BME280;24180;42.676;23.320;2023-08-01T02:18:18;94697.81;;;19.73;100.00
38400;BME280;24180;42.676;23.320;2023-08-01T02:20:43;94692.22;;;19.68;100.00
38400;BME280;24180;42.676;23.320;2023-08-01T02:23:08;94717.81;;;19.68;100.00
38400;BME280;24180;42.676;23.320;2023-08-01T02:25:39;94707.56;;;19.58;100.00
38400;BME280;24180;42.676;23.320;2023-08-01T02:28:05;94718.94;;;19.73;100.00
38400;BME280;24180;42.676;23.320;2023-08-01T02:30:30;94684.34;;;19.54;100.00
38400;BME280;24180;42.676;23.320;2023-08-01T02:32:56;94708.22;;;19.60;100.00
38400;BME280;24180;42.676;23.320;2023-08-01T02:35:21;94697.22;;;19.42;100.00
38400;BME280;24180;42.676;23.320;2023-08-01T02:37:47;94699.03;;;19.42;100.00
38400;BME280;24180;42.676;23.320;2023-08-01T02:40:12;94708.84;;;19.62;100.00
38400;BME280;24180;42.676;23.320;2023-08-01T02:42:37;94697.13;;;19.50;100.00
38400;BME280;24180;42.676;23.320;2023-08-01T02:45:03;94690.84;;;19.50;100.00
38400;BME280;24180;42.676;23.320;2023-08-01T02:47:29;94689.31;;;19.57;100.00
38400;BME280;24180;42.676;23.320;2023-08-01T02:49:54;94700.38;;;19.65;100.00
38400;BME280;24180;42.676;23.320;2023-08-01T02:52:20;94682.88;;;19.44;100.00
38400;BME280;24180;42.676;23.320;2023-08-01T02:54:45;94678.31;;;19.44;100.00
38400;BME280;24180;42.676;23.320;2023-08-01T02:57:10;94686.25;;;19.38;100.00
38400;BME280;24180;42.676;23.320;2023-08-01T02:59:36;94725.81;;;19.53;100.00
38400;BME280;24180;42.676;23.320;2023-08-01T03:02:01;94724.75;;;19.53;100.00
38400;BME280;24180;42.676;23.320;2023-08-01T03:04:27;94709.19;;;19.47;100.00
38400;BME280;24180;42.676;23.320;2023-08-01T03:06:52;94722.50;;;19.44;100.00
38400;BME280;24180;42.676;23.320;2023-08-01T03:09:18;94720.69;;;19.30;100.00
38400;BME280;24180;42.676;23.320;2023-08-01T03:11:43;94686.47;;;19.01;100.00
38400;BME280;24180;42.676;23.320;2023-08-01T03:14:08;94694.00;;;19.04;100.00
38400;BME280;24180;42.676;23.320;2023-08-01T03:16:34;94682.75;;;18.80;100.00
38400;BME280;24180;42.676;23.320;2023-08-01T03:18:59;94720.88;;;19.14;100.00
38400;BME280;24180;42.676;23.320;2023-08-01T03:21:31;94714.78;;;19.13;100.00
38400;BME280;24180;42.676;23.320;2023-08-01T03:23:57;94709.38;;;19.00;100.00
38400;BME280;24180;42.676;23.320;2023-08-01T03:26:22;94705.63;;;18.94;100.00
38400;BME280;24180;42.676;23.320;2023-08-01T03:28:48;94699.03;;;18.84;100.00
38400;BME280;24180;42.676;23.320;2023-08-01T03:31:13;94719.19;;;19.06;100.00
38400;BME280;24180;42.676;23.320;2023-08-01T03:33:39;94720.44;;;19.10;100.00
38400;BME280;24180;42.676;23.320;2023-08-01T03:36:04;94718.56;;;19.04;100.00
38400;BME280;24180;42.676;23.320;2023-08-01T03:38:30;94711.38;;;18.98;100.00
38400;BME280;24180;42.676;23.320;2023-08-01T03:40:55;94738.63;;;19.05;100.00
38400;BME280;24180;42.676;23.320;2023-08-01T03:43:21;94726.56;;;19.06;100.00
38400;BME280;24180;42.676;23.320;2023-08-01T03:45:49;94701.56;;;18.92;100.00
38400;BME280;24180;42.676;23.320;2023-08-01T03:48:15;94706.66;;;18.79;100.00
38400;BME280;24180;42.676;23.320;2023-08-01T03:50:40;94730.66;;;18.99;100.00
38400;BME280;24180;42.676;23.320;2023-08-01T03:53:05;94726.03;;;19.01;100.00
38400;BME280;24180;42.676;23.320;2023-08-01T03:55:32;94699.94;;;18.91;100.00
38400;BME280;24180;42.676;23.320;2023-08-01T03:57:58;94731.88;;;18.96;100.00
38400;BME280;24180;42.676;23.320;2023-08-01T04:00:23;94716.22;;;18.80;100.00
38400;BME280;24180;42.676;23.320;2023-08-01T04:02:49;94702.94;;;18.73;100.00
38400;BME280;24180;42.676;23.320;2023-08-01T04:05:15;94728.44;;;18.81;100.00
38400;BME280;24180;42.676;23.320;2023-08-01T04:07:41;94713.94;;;18.62;100.00
38400;BME280;24180;42.676;23.320;2023-08-01T04:10:07;94696.59;;;18.53;100.00
38400;BME280;24180;42.676;23.320;2023-08-01T04:12:33;94729.13;;;18.60;100.00
38400;BME280;24180;42.676;23.320;2023-08-01T04:14:59;94762.75;;;18.58;100.00
38400;BME280;24180;42.676;23.320;2023-08-01T04:17:24;94717.22;;;18.49;100.00
38400;BME280;24180;42.676;23.320;2023-08-01T04:19:50;94723.53;;;18.48;100.00
38400;BME280;24180;42.676;23.320;2023-08-01T04:22:15;94722.47;;;18.49;100.00
38400;BME280;24180;42.676;23.320;2023-08-01T04:24:41;60214.53;;;24.22;100.00
38400;BME280;24180;42.676;23.320;2023-08-01T04:27:06;94719.50;;;18.52;100.00
38400;BME280;24180;42.676;23.320;2023-08-01T04:29:32;94730.75;;;18.61;100.00
38400;BME280;24180;42.676;23.320;2023-08-01T04:31:57;94711.13;;;18.49;100.00
38400;BME280;24180;42.676;23.320;2023-08-01T04:34:23;94730.22;;;18.51;100.00
38400;BME280;24180;42.676;23.320;2023-08-01T04:36:48;94727.50;;;18.44;100.00
38400;BME280;24180;42.676;23.320;2023-08-01T04:39:14;94702.94;;;18.29;100.00
38400;BME280;24180;42.676;23.320;2023-08-01T04:41:39;94705.56;;;18.29;100.00
38400;BME280;24180;42.676;23.320;2023-08-01T04:44:04;94706.13;;;18.39;100.00
38400;BME280;24180;42.676;23.320;2023-08-01T04:46:30;94698.84;;;18.26;100.00
38400;BME280;24180;42.676;23.320;2023-08-01T04:48:55;94695.69;;;18.31;100.00
38400;BME280;24180;42.676;23.320;2023-08-01T04:51:20;94722.13;;;18.52;100.00
38400;BME280;24180;42.676;23.320;2023-08-01T04:53:46;94701.78;;;18.46;100.00
38400;BME280;24180;42.676;23.320;2023-08-01T04:56:11;94702.44;;;18.48;100.00
38400;BME280;24180;42.676;23.320;2023-08-01T04:58:37;94725.66;;;18.74;100.00
38400;BME280;24180;42.676;23.320;2023-08-01T05:01:02;94744.44;;;18.74;100.00
38400;BME280;24180;42.676;23.320;2023-08-01T05:03:27;94697.25;;;18.40;100.00
38400;BME280;24180;42.676;23.320;2023-08-01T05:05:53;94712.13;;;18.62;100.00
38400;BME280;24180;42.676;23.320;2023-08-01T05:08:18;94717.94;;;18.73;100.00
38400;BME280;24180;42.676;23.320;2023-08-01T05:10:44;94718.50;;;18.68;100.00
38400;BME280;24180;42.676;23.320;2023-08-01T05:13:09;94732.97;;;18.72;100.00
38400;BME280;24180;42.676;23.320;2023-08-01T05:15:34;94711.31;;;18.77;100.00
38400;BME280;24180;42.676;23.320;2023-08-01T05:18:00;94750.44;;;18.88;100.00
38400;BME280;24180;42.676;23.320;2023-08-01T05:20:25;94728.41;;;18.95;100.00
38400;BME280;24180;42.676;23.320;2023-08-01T05:22:59;94744.69;;;18.99;100.00
38400;BME280;24180;42.676;23.320;2023-08-01T05:25:24;94738.31;;;19.08;100.00
38400;BME280;24180;42.676;23.320;2023-08-01T05:27:50;94742.13;;;19.20;100.00
38400;BME280;24180;42.676;23.320;2023-08-01T05:30:16;94728.97;;;19.27;100.00
38400;BME280;24180;42.676;23.320;2023-08-01T05:32:41;94713.63;;;19.16;100.00
38400;BME280;24180;42.676;23.320;2023-08-01T05:35:08;94742.25;;;19.34;100.00
38400;BME280;24180;42.676;23.320;2023-08-01T05:37:34;94717.09;;;19.38;100.00
38400;BME280;24180;42.676;23.320;2023-08-01T05:39:59;94718.34;;;19.42;100.00
38400;BME280;24180;42.676;23.320;2023-08-01T05:42:25;94747.31;;;19.50;100.00
38400;BME280;24180;42.676;23.320;2023-08-01T05:44:50;94716.84;;;19.54;100.00
38400;BME280;24180;42.676;23.320;2023-08-01T05:47:16;94745.66;;;19.64;100.00
38400;BME280;24180;42.676;23.320;2023-08-01T05:49:41;94713.25;;;19.55;100.00
38400;BME280;24180;42.676;23.320;2023-08-01T05:52:07;94732.38;;;19.55;100.00
38400;BME280;24180;42.676;23.320;2023-08-01T05:54:32;94745.47;;;19.87;100.00
38400;BME280;24180;42.676;23.320;2023-08-01T05:56:58;94740.81;;;19.89;100.00
38400;BME280;24180;42.676;23.320;2023-08-01T05:59:23;94719.97;;;19.79;100.00
38400;BME280;24180;42.676;23.320;2023-08-01T06:01:49;94689.03;;;19.79;100.00
38400;BME280;24180;42.676;23.320;2023-08-01T06:04:14;94747.69;;;20.04;100.00
38400;BME280;24180;42.676;23.320;2023-08-01T06:06:40;94729.28;;;20.04;100.00
38400;BME280;24180;42.676;23.320;2023-08-01T06:09:05;94717.34;;;20.18;100.00
38400;BME280;24180;42.676;23.320;2023-08-01T06:11:31;94721.94;;;20.22;100.00
38400;BME280;24180;42.676;23.320;2023-08-01T06:13:58;94740.22;;;20.36;100.00
38400;BME280;24180;42.676;23.320;2023-08-01T06:16:23;94742.69;;;20.36;100.00
38400;BME280;24180;42.676;23.320;2023-08-01T06:18:49;94737.41;;;20.66;100.00
38400;BME280;24180;42.676;23.320;2023-08-01T06:21:14;94748.44;;;20.66;100.00
38400;BME280;24180;42.676;23.320;2023-08-01T06:23:40;94750.09;;;20.77;100.00
38400;BME280;24180;42.676;23.320;2023-08-01T06:26:05;94711.44;;;20.77;100.00
38400;BME280;24180;42.676;23.320;2023-08-01T06:28:30;94717.63;;;20.76;100.00
38400;BME280;24180;42.676;23.320;2023-08-01T06:30:56;94741.41;;;20.90;100.00
38400;BME280;24180;42.676;23.320;2023-08-01T06:33:21;94731.34;;;21.18;100.00
38400;BME280;24180;42.676;23.320;2023-08-01T06:35:47;94711.34;;;21.34;100.00
38400;BME280;24180;42.676;23.320;2023-08-01T06:38:12;94711.38;;;21.32;100.00
38400;BME280;24180;42.676;23.320;2023-08-01T06:40:37;94721.78;;;21.39;100.00
38400;BME280;24180;42.676;23.320;2023-08-01T06:43:03;94725.63;;;21.47;100.00
38400;BME280;24180;42.676;23.320;2023-08-01T06:45:28;94744.84;;;21.44;100.00
38400;BME280;24180;42.676;23.320;2023-08-01T06:47:54;94714.88;;;21.53;100.00
38400;BME280;24180;42.676;23.320;2023-08-01T06:50:19;94713.69;;;21.46;100.00
38400;BME280;24180;42.676;23.320;2023-08-01T06:52:45;94724.91;;;21.55;100.00
38400;BME280;24180;42.676;23.320;2023-08-01T06:55:10;94735.72;;;21.57;100.00
38400;BME280;24180;42.676;23.320;2023-08-01T06:57:36;94731.50;;;21.63;100.00
38400;BME280;24180;42.676;23.320;2023-08-01T07:00:01;94705.41;;;21.81;100.00
38400;BME280;24180;42.676;23.320;2023-08-01T07:02:28;94726.88;;;21.78;100.00
38400;BME280;24180;42.676;23.320;2023-08-01T07:04:53;94727.31;;;22.03;100.00
38400;BME280;24180;42.676;23.320;2023-08-01T07:07:19;94720.22;;;22.13;100.00
38400;BME280;24180;42.676;23.320;2023-08-01T07:09:44;94711.63;;;22.20;100.00
38400;BME280;24180;42.676;23.320;2023-08-01T07:12:09;94721.25;;;22.25;100.00
38400;BME280;24180;42.676;23.320;2023-08-01T07:14:35;94689.22;;;22.32;100.00
38400;BME280;24180;42.676;23.320;2023-08-01T07:17:00;94743.94;;;22.55;100.00
38400;BME280;24180;42.676;23.320;2023-08-01T07:19:26;94714.16;;;22.55;100.00
38400;BME280;24180;42.676;23.320;2023-08-01T07:21:51;94710.47;;;22.73;100.00
38400;BME280;24180;42.676;23.320;2023-08-01T07:24:17;94692.06;;;22.74;100.00
38400;BME280;24180;42.676;23.320;2023-08-01T07:26:42;94692.88;;;22.46;100.00
38400;BME280;24180;42.676;23.320;2023-08-01T07:29:07;94705.56;;;22.66;100.00
38400;BME280;24180;42.676;23.320;2023-08-01T07:31:35;94695.34;;;22.84;100.00
38400;BME280;24180;42.676;23.320;2023-08-01T07:34:01;94688.38;;;22.87;100.00
38400;BME280;24180;42.676;23.320;2023-08-01T07:36:27;94699.41;;;23.00;100.00
38400;BME280;24180;42.676;23.320;2023-08-01T07:38:53;60208.53;;;24.27;100.00
38400;BME280;24180;42.676;23.320;2023-08-01T07:41:19;94729.16;;;23.58;100.00
38400;BME280;24180;42.676;23.320;2023-08-01T07:43:44;94697.06;;;23.58;100.00
38400;BME280;24180;42.676;23.320;2023-08-01T07:46:10;94683.81;;;23.60;100.00
38400;BME280;24180;42.676;23.320;2023-08-01T07:48:37;94714.84;;;23.66;100.00
38400;BME280;24180;42.676;23.320;2023-08-01T07:51:02;94710.69;;;23.66;100.00
38400;BME280;24180;42.676;23.320;2023-08-01T07:53:30;94686.94;;;23.83;100.00
38400;BME280;24180;42.676;23.320;2023-08-01T07:55:55;60212.25;;;24.27;100.00
38400;BME280;24180;42.676;23.320;2023-08-01T07:58:21;94693.22;;;28.76;100.00
38400;BME280;24180;42.676;23.320;2023-08-01T08:00:47;60207.88;;;24.27;100.00
38400;BME280;24180;42.676;23.320;2023-08-01T08:03:13;94702.19;;;28.76;100.00
38400;BME280;24180;42.676;23.320;2023-08-01T08:05:39;94686.22;;;24.13;100.00
38400;BME280;24180;42.676;23.320;2023-08-01T08:08:06;94699.50;;;24.10;100.00
38400;BME280;24180;42.676;23.320;2023-08-01T08:10:32;60207.88;;;24.27;100.00
38400;BME280;24180;42.676;23.320;2023-08-01T08:12:57;60186.84;;;24.27;100.00
38400;BME280;24180;42.676;23.320;2023-08-01T08:15:23;94664.63;;;28.76;100.00
38400;BME280;24180;42.676;23.320;2023-08-01T08:17:49;60195.31;;;24.27;100.00
38400;BME280;24180;42.676;23.320;2023-08-01T08:20:14;95444.56;;;29.42;100.00
38400;BME280;24180;42.676;23.320;2023-08-01T08:22:40;94683.84;;;24.75;100.00
38400;BME280;24180;42.676;23.320;2023-08-01T08:25:05;60194.00;;;24.35;100.00
38400;BME280;24180;42.676;23.320;2023-08-01T08:27:31;94657.91;;;29.42;100.00
38400;BME280;24180;42.676;23.320;2023-08-01T08:29:56;94652.28;;;29.06;100.00
38400;BME280;24180;42.676;23.320;2023-08-01T08:32:22;94716.59;;;25.07;100.00
38400;BME280;24180;42.676;23.320;2023-08-01T08:34:47;94650.03;;;25.25;100.00
38400;BME280;24180;42.676;23.320;2023-08-01T08:37:13;60151.91;;;24.27;100.00
38400;BME280;24180;42.676;23.320;2023-08-01T08:39:38;94654.78;;;28.76;100.00
38400;BME280;24180;42.676;23.320;2023-08-01T08:42:04;60195.31;;;24.27;100.00
38400;BME280;24180;42.676;23.320;2023-08-01T08:44:30;60194.00;;;24.35;100.00
38400;BME280;24180;42.676;23.320;2023-08-01T08:47:02;94686.31;;;25.51;100.00
38400;BME280;24180;42.676;23.320;2023-08-01T08:49:29;94689.06;;;25.63;100.00
38400;BME280;24180;42.676;23.320;2023-08-01T08:51:55;95084.56;;;28.76;100.00
38400;BME280;24180;42.676;23.320;2023-08-01T08:54:21;95059.91;;;25.94;100.00
38400;BME280;24180;42.676;23.320;2023-08-01T08:56:47;95090.25;;;28.64;100.00
38400;BME280;24180;42.676;23.320;2023-08-01T08:59:13;60195.31;;;24.27;100.00
38400;BME280;24180;42.676;23.320;2023-08-01T09:01:39;60195.31;;;24.27;100.00
38400;BME280;24180;42.676;23.320;2023-08-01T09:04:05;60185.53;;;24.27;100.00
38400;BME280;24180;42.676;23.320;2023-08-01T09:06:45;60195.31;;;24.27;100.00
38400;BME280;24180;42.676;23.320;2023-08-01T09:09:14;60186.84;;;24.27;100.00
38400;BME280;24180;42.676;23.320;2023-08-01T09:11:51;60195.31;;;24.27;100.00
38400;BME280;24180;42.676;23.320;2023-08-01T09:14:17;60194.00;;;24.35;100.00
38400;BME280;24180;42.676;23.320;2023-08-01T09:16:43;60185.53;;;24.35;100.00
38400;BME280;24180;42.676;23.320;2023-08-01T09:19:09;60194.00;;;24.35;100.00
38400;BME280;24180;42.676;23.320;2023-08-01T09:21:35;60194.00;;;24.35;100.00
38400;BME280;24180;42.676;23.320;2023-08-01T09:26:36;60194.00;;;24.27;100.00
38400;BME280;24180;42.676;23.320;2023-08-01T09:29:01;60194.00;;;24.35;100.00
38400;BME280;24180;42.676;23.320;2023-08-01T09:31:32;60194.00;;;24.35;100.00
38400;BME280;24180;42.676;23.320;2023-08-01T09:33:59;60194.00;;;24.35;100.00
38400;BME280;24180;42.676;23.320;2023-08-01T09:36:25;60194.00;;;24.35;100.00
38400;BME280;24180;42.676;23.320;2023-08-01T09:38:51;60194.00;;;24.35;100.00
38400;BME280;24180;42.676;23.320;2023-08-01T09:41:17;60194.00;;;24.35;100.00
38400;BME280;24180;42.676;23.320;2023-08-01T09:43:45;60195.31;;;24.27;100.00
38400;BME280;24180;42.676;23.320;2023-08-01T09:46:11;60194.00;;;24.35;100.00
38400;BME280;24180;42.676;23.320;2023-08-01T09:48:37;60194.00;;;24.35;100.00
38400;BME280;24180;42.676;23.320;2023-08-01T09:51:06;60185.53;;;24.35;100.00
38400;BME280;24180;42.676;23.320;2023-08-01T09:53:32;60216.34;;;24.27;100.00
38400;BME280;24180;42.676;23.320;2023-08-01T09:55:59;60185.53;;;24.27;100.00
38400;BME280;24180;42.676;23.320;2023-08-01T09:58:31;95028.72;;;28.76;100.00
38400;BME280;24180;42.676;23.320;2023-08-01T10:00:57;60194.00;;;24.35;100.00
38400;BME280;24180;42.676;23.320;2023-08-01T10:03:23;60194.00;;;24.35;100.00
38400;BME280;24180;42.676;23.320;2023-08-01T10:05:48;60194.00;;;24.35;100.00
38400;BME280;24180;42.676;23.320;2023-08-01T10:08:19;60194.00;;;24.35;100.00
38400;BME280;24180;42.676;23.320;2023-08-01T10:10:45;60194.00;;;24.35;100.00
38400;BME280;24180;42.676;23.320;2023-08-01T10:13:13;60194.00;;;24.35;100.00
38400;BME280;24180;42.676;23.320;2023-08-01T10:15:39;60194.00;;;24.35;100.00
38400;BME280;24180;42.676;23.320;2023-08-01T10:18:04;60194.00;;;24.35;100.00
38400;BME280;24180;42.676;23.320;2023-08-01T10:20:30;60194.00;;;24.35;100.00
38400;BME280;24180;42.676;23.320;2023-08-01T10:22:57;58050.22;;;29.42;100.00
38400;BME280;24180;42.676;23.320;2023-08-01T10:25:23;60194.00;;;24.35;100.00
38400;BME280;24180;42.676;23.320;2023-08-01T10:28:03;60194.00;;;24.35;100.00
38400;BME280;24180;42.676;23.320;2023-08-01T10:30:29;60151.91;;;24.35;100.00
38400;BME280;24180;42.676;23.320;2023-08-01T10:32:59;60151.91;;;24.35;100.00
38400;BME280;24180;42.676;23.320;2023-08-01T10:35:38;60151.91;;;24.35;100.00
38400;BME280;24180;42.676;23.320;2023-08-01T10:38:08;58575.53;;;29.42;100.00
38400;BME280;24180;42.676;23.320;2023-08-01T10:40:40;60168.84;;;24.51;100.00
38400;BME280;24180;42.676;23.320;2023-08-01T10:43:19;60151.91;;;24.35;100.00
38400;BME280;24180;42.676;23.320;2023-08-01T10:45:45;60168.84;;;24.35;100.00
38400;BME280;24180;42.676;23.320;2023-08-01T10:48:11;60168.84;;;24.51;100.00
38400;BME280;24180;42.676;23.320;2023-08-01T10:50:37;60168.84;;;24.51;100.00
38400;BME280;24180;42.676;23.320;2023-08-01T10:53:05;60168.84;;;24.51;100.00
38400;BME280;24180;42.676;23.320;2023-08-01T10:55:45;60168.84;;;24.51;100.00
38400;BME280;24180;42.676;23.320;2023-08-01T10:58:11;60168.84;;;24.51;100.00
38400;BME280;24180;42.676;23.320;2023-08-01T11:00:38;60168.84;;;24.51;100.00
38400;BME280;24180;42.676;23.320;2023-08-01T11:03:04;60151.91;;;24.35;100.00
38400;BME280;24180;42.676;23.320;2023-08-01T11:05:29;60168.84;;;24.51;100.00
38400;BME280;24180;42.676;23.320;2023-08-01T11:07:59;60168.84;;;24.51;100.00
38400;BME280;24180;42.676;23.320;2023-08-01T11:10:26;60084.69;;;24.51;100.00
38400;BME280;24180;42.676;23.320;2023-08-01T11:12:52;60084.69;;;24.51;100.00
38400;BME280;24180;42.676;23.320;2023-08-01T11:15:19;60084.69;;;24.35;100.00
38400;BME280;24180;42.676;23.320;2023-08-01T11:17:52;60084.69;;;24.51;100.00
38400;BME280;24180;42.676;23.320;2023-08-01T11:20:19;60168.84;;;24.51;100.00
38400;BME280;24180;42.676;23.320;2023-08-01T11:23:12;60168.84;;;24.51;100.00
38400;BME280;24180;42.676;23.320;2023-08-01T11:25:40;60168.84;;;24.51;100.00
38400;BME280;24180;42.676;23.320;2023-08-01T11:28:07;60168.84;;;24.51;100.00
38400;BME280;24180;42.676;23.320;2023-08-01T11:30:33;60168.84;;;24.51;100.00
38400;BME280;24180;42.676;23.320;2023-08-01T11:32:59;60168.84;;;24.51;100.00
38400;BME280;24180;42.676;23.320;2023-08-01T11:35:25;60168.84;;;24.51;100.00
38400;BME280;24180;42.676;23.320;2023-08-01T11:37:51;60168.84;;;24.51;100.00
38400;BME280;24180;42.676;23.320;2023-08-01T11:40:17;60084.69;;;24.35;100.00
38400;BME280;24180;42.676;23.320;2023-08-01T11:42:47;60084.69;;;24.51;100.00
38400;BME280;24180;42.676;23.320;2023-08-01T11:45:13;60084.69;;;24.51;100.00
38400;BME280;24180;42.676;23.320;2023-08-01T11:47:47;60084.69;;;24.51;100.00
38400;BME280;24180;42.676;23.320;2023-08-01T11:50:13;60084.69;;;24.35;100.00
38400;BME280;24180;42.676;23.320;2023-08-01T11:52:39;60084.69;;;24.35;100.00
38400;BME280;24180;42.676;23.320;2023-08-01T11:55:05;60084.69;;;24.51;100.00
38400;BME280;24180;42.676;23.320;2023-08-01T11:57:31;60084.69;;;24.51;100.00
38400;BME280;24180;42.676;23.320;2023-08-01T11:59:56;60084.69;;;24.51;100.00
38400;BME280;24180;42.676;23.320;2023-08-01T12:04:48;60084.69;;;24.51;100.00
38400;BME280;24180;42.676;23.320;2023-08-01T12:07:14;60151.91;;;24.35;100.00
38400;BME280;24180;42.676;23.320;2023-08-01T12:09:40;60168.84;;;24.51;100.00
38400;BME280;24180;42.676;23.320;2023-08-01T12:12:06;60168.84;;;24.51;100.00
38400;BME280;24180;42.676;23.320;2023-08-01T12:14:31;60168.84;;;24.51;100.00
38400;BME280;24180;42.676;23.320;2023-08-01T12:16:57;60168.84;;;24.51;100.00
38400;BME280;24180;42.676;23.320;2023-08-01T12:19:22;60168.84;;;24.51;100.00
38400;BME280;24180;42.676;23.320;2023-08-01T12:21:48;60168.84;;;24.51;100.00
38400;BME280;24180;42.676;23.320;2023-08-01T12:24:14;60067.78;;;24.35;100.00
38400;BME280;24180;42.676;23.320;2023-08-01T12:26:39;60168.84;;;24.35;100.00
38400;BME280;24180;42.676;23.320;2023-08-01T12:29:05;60084.69;;;24.35;100.00
38400;BME280;24180;42.676;23.320;2023-08-01T12:31:30;60084.69;;;24.51;100.00
38400;BME280;24180;42.676;23.320;2023-08-01T12:33:56;60084.69;;;24.35;100.00
38400;BME280;24180;42.676;23.320;2023-08-01T12:36:21;60084.69;;;24.51;100.00
38400;BME280;24180;42.676;23.320;2023-08-01T12:38:47;60084.69;;;24.51;100.00
38400;BME280;24180;42.676;23.320;2023-08-01T12:41:12;60084.69;;;24.51;100.00
38400;BME280;24180;42.676;23.320;2023-08-01T12:43:38;60168.84;;;24.51;100.00